createdAt,value
2022-12-18T00:02:13.518Z,101718.81
2022-12-18T00:04:40.554Z,101716.19
2022-12-18T00:07:07.426Z,101706.13
2022-12-18T00:09:40.074Z,101709.06
2022-12-18T00:14:45.626Z,101702.38
2022-12-18T00:17:12.910Z,101688.25
2022-12-18T00:19:39.373Z,101690.09
2022-12-18T00:22:07.212Z,101697.91
2022-12-18T00:24:34.059Z,101705.59
2022-12-18T00:27:00.548Z,101706.31
2022-12-18T00:29:27.050Z,101714.78
2022-12-18T00:31:54.168Z,101704.22
2022-12-18T00:34:20.552Z,101704.00
2022-12-18T00:36:48.637Z,101706.41
2022-12-18T00:39:15.172Z,101723.34
2022-12-18T00:42:03.664Z,101720.03
2022-12-18T00:44:31.086Z,101719.16
2022-12-18T00:46:57.779Z,101712.56
2022-12-18T00:49:24.850Z,101712.44
2022-12-18T00:51:51.598Z,101723.75
2022-12-18T00:54:18.863Z,101720.56
2022-12-18T00:56:49.470Z,101727.97
2022-12-18T00:59:17.844Z,101729.91
2022-12-18T01:01:45.734Z,101721.09
2022-12-18T01:04:12.591Z,101724.19
2022-12-18T01:06:39.345Z,101724.78
2022-12-18T01:09:06.924Z,101716.47
2022-12-18T01:11:36.395Z,101717.44
2022-12-18T01:14:05.138Z,101711.81
2022-12-18T01:16:31.787Z,101710.53
2022-12-18T01:18:58.265Z,101715.28
2022-12-18T01:21:27.269Z,101709.72
2022-12-18T01:23:55.845Z,101702.81
2022-12-18T01:26:24.356Z,101702.19
2022-12-18T01:29:11.281Z,101699.06
2022-12-18T01:31:57.754Z,101702.44
2022-12-18T01:34:44.699Z,101704.34
2022-12-18T01:37:31.106Z,101714.41
2022-12-18T01:40:18.056Z,101710.72
2022-12-18T01:43:04.609Z,101725.06
2022-12-18T01:45:33.048Z,101709.34
2022-12-18T01:48:07.197Z,101723.59
2022-12-18T01:50:40.603Z,101720.81
2022-12-18T01:53:12.333Z,101733.72
2022-12-18T01:55:43.944Z,101727.97
2022-12-18T01:58:11.253Z,101736.31
2022-12-18T02:00:37.733Z,101730.25
2022-12-18T02:03:04.298Z,101721.84
2022-12-18T02:06:01.838Z,101719.91
2022-12-18T02:08:38.769Z,101720.53
2022-12-18T02:11:13.281Z,101718.91
2022-12-18T02:14:05.170Z,101720.28
2022-12-18T02:16:53.108Z,101725.44
2022-12-18T02:20:02.550Z,101744.38
2022-12-18T02:22:29.733Z,101748.41
2022-12-18T02:25:29.293Z,101748.75
2022-12-18T02:27:59.032Z,101735.38
2022-12-18T02:30:28.280Z,101727.19
2022-12-18T02:32:56.810Z,101730.91
2022-12-18T02:35:26.949Z,101747.69
2022-12-18T02:37:56.467Z,101733.44
2022-12-18T02:40:26.911Z,101725.25
2022-12-18T02:42:53.388Z,101710.13
2022-12-18T02:45:20.972Z,101701.59
2022-12-18T02:47:50.733Z,101708.66
2022-12-18T02:50:39.374Z,101701.41
2022-12-18T02:53:37.696Z,101692.94
2022-12-18T02:56:16.895Z,101686.03
2022-12-18T02:59:07.121Z,101676.19
2022-12-18T03:01:52.845Z,101669.69
2022-12-18T03:04:29.909Z,101676.41
2022-12-18T03:07:01.081Z,101695.16
2022-12-18T03:09:39.088Z,101697.81
2022-12-18T03:12:25.944Z,101685.09
2022-12-18T03:15:17.491Z,101689.22
2022-12-18T03:18:00.240Z,101706.19
2022-12-18T03:20:32.173Z,101719.50
2022-12-18T03:23:10.468Z,101727.88
2022-12-18T03:25:41.661Z,101732.34
2022-12-18T03:28:13.537Z,101735.56
2022-12-18T03:30:43.257Z,101728.56
2022-12-18T03:33:20.752Z,101719.69
2022-12-18T03:35:50.196Z,101715.91
2022-12-18T03:38:18.381Z,101702.84
2022-12-18T03:40:54.938Z,101691.38
2022-12-18T03:43:36.533Z,101694.00
2022-12-18T03:46:09.631Z,101709.44
2022-12-18T03:48:44.629Z,101717.22
2022-12-18T03:51:37.830Z,101703.22
2022-12-18T03:54:07.953Z,101702.91
2022-12-18T03:56:48.246Z,101702.97
2022-12-18T03:59:17.831Z,101701.69
2022-12-18T04:01:48.605Z,101701.78
2022-12-18T04:04:19.098Z,101697.66
2022-12-18T04:06:48.867Z,101694.44
2022-12-18T04:09:17.510Z,101702.03
2022-12-18T04:11:48.216Z,101715.78
2022-12-18T04:14:18.319Z,101714.44
2022-12-18T04:16:49.253Z,101716.19
2022-12-18T04:19:18.207Z,101711.59
2022-12-18T04:21:47.880Z,101713.94
2022-12-18T04:24:14.952Z,101707.09
2022-12-18T04:26:50.724Z,101706.13
2022-12-18T04:29:22.218Z,101698.88
2022-12-18T04:31:49.395Z,101701.09
2022-12-18T04:34:16.610Z,101700.13
2022-12-18T04:36:49.045Z,101696.66
2022-12-18T04:39:19.663Z,101692.75
2022-12-18T04:41:48.652Z,101690.13
2022-12-18T04:44:15.584Z,101697.63
2022-12-18T04:46:43.688Z,101700.59
2022-12-18T04:49:11.559Z,101694.09
2022-12-18T04:51:38.615Z,101692.13
2022-12-18T04:54:05.232Z,101698.66
2022-12-18T04:56:32.968Z,101704.91
2022-12-18T04:58:59.800Z,101699.66
2022-12-18T05:01:32.545Z,101695.75
2022-12-18T05:04:02.123Z,101698.56
2022-12-18T05:06:28.647Z,101700.59
2022-12-18T05:08:55.489Z,101699.25
2022-12-18T05:11:22.470Z,101703.44
2022-12-18T05:13:50.259Z,101713.19
2022-12-18T05:16:17.022Z,101714.63
2022-12-18T05:18:44.212Z,101722.97
2022-12-18T05:21:10.922Z,101720.59
2022-12-18T05:23:38.157Z,101725.25
2022-12-18T05:26:07.040Z,101736.13
2022-12-18T05:28:35.165Z,101737.25
2022-12-18T05:31:04.052Z,101734.72
2022-12-18T05:33:33.118Z,101740.41
2022-12-18T05:36:06.386Z,101733.41
2022-12-18T05:38:35.017Z,101727.84
2022-12-18T05:41:01.611Z,101732.22
2022-12-18T05:43:29.385Z,101721.91
2022-12-18T05:45:59.446Z,101726.56
2022-12-18T05:48:26.244Z,101725.72
2022-12-18T05:50:53.286Z,101727.63
2022-12-18T05:53:21.190Z,101727.84
2022-12-18T05:55:48.963Z,101725.31
2022-12-18T05:58:16.344Z,101711.84
2022-12-18T06:00:46.440Z,101713.06
2022-12-18T06:03:14.291Z,101713.69
2022-12-18T06:05:45.757Z,101707.34
2022-12-18T06:08:13.522Z,101714.91
2022-12-18T06:10:40.495Z,101708.84
2022-12-18T06:13:07.860Z,101721.41
2022-12-18T06:15:38.230Z,101723.56
2022-12-18T06:18:04.802Z,101723.09
2022-12-18T06:20:33.684Z,101730.25
2022-12-18T06:23:00.829Z,101735.59
2022-12-18T06:25:27.481Z,101737.25
2022-12-18T06:27:55.024Z,101748.72
2022-12-18T06:30:21.723Z,101752.41
2022-12-18T06:32:54.658Z,101759.03
2022-12-18T06:35:22.655Z,101761.09
2022-12-18T06:37:49.609Z,101766.66
2022-12-18T06:40:16.415Z,101773.44
2022-12-18T06:42:43.090Z,101767.69
2022-12-18T06:45:10.160Z,101768.28
2022-12-18T06:47:36.944Z,101765.31
2022-12-18T06:50:03.791Z,101768.31
2022-12-18T06:52:32.833Z,101773.44
2022-12-18T06:54:59.806Z,101774.66
2022-12-18T06:57:26.261Z,101781.50
2022-12-18T06:59:53.126Z,101790.31
2022-12-18T07:02:19.787Z,101789.50
2022-12-18T07:04:46.516Z,101795.69
2022-12-18T07:07:12.969Z,101802.41
2022-12-18T07:09:39.809Z,101806.34
2022-12-18T07:12:08.161Z,101815.25
2022-12-18T07:14:35.129Z,101814.00
2022-12-18T07:17:01.886Z,101809.38
2022-12-18T07:19:28.644Z,101810.59
2022-12-18T07:21:56.422Z,101813.88
2022-12-18T07:24:22.815Z,101810.66
2022-12-18T07:26:49.449Z,101808.34
2022-12-18T07:29:16.114Z,101812.53
2022-12-18T07:31:43.055Z,101812.34
2022-12-18T07:34:14.106Z,101812.16
2022-12-18T07:36:40.583Z,101812.25
2022-12-18T07:39:07.056Z,101814.09
2022-12-18T07:41:34.173Z,101809.53
2022-12-18T07:44:11.640Z,101805.50
2022-12-18T07:46:38.607Z,101794.00
2022-12-18T07:49:05.505Z,101790.47
2022-12-18T07:51:32.238Z,101784.22
2022-12-18T07:53:58.709Z,101780.91
2022-12-18T07:56:28.297Z,101781.53
2022-12-18T07:58:55.508Z,101786.50
2022-12-18T08:01:22.456Z,101785.91
2022-12-18T08:03:49.040Z,101785.13
2022-12-18T08:06:18.906Z,101783.66
2022-12-18T08:08:45.297Z,101784.84
2022-12-18T08:11:11.718Z,101781.91
2022-12-18T08:13:38.594Z,101785.41
2022-12-18T08:16:07.836Z,101794.28
2022-12-18T08:18:36.514Z,101797.50
2022-12-18T08:21:10.492Z,101799.97
2022-12-18T08:23:42.292Z,101813.41
2022-12-18T08:26:10.381Z,101804.78
2022-12-18T08:28:37.205Z,101800.50
2022-12-18T08:31:03.902Z,101807.75
2022-12-18T08:33:30.438Z,101808.28
2022-12-18T08:35:56.890Z,101807.41
2022-12-18T08:38:24.155Z,101811.19
2022-12-18T08:40:50.610Z,101808.47
2022-12-18T08:43:35.779Z,101800.56
2022-12-18T08:46:02.705Z,101784.94
2022-12-18T08:48:29.168Z,101785.56
2022-12-18T08:51:00.146Z,101775.81
2022-12-18T08:53:30.359Z,101770.00
2022-12-18T08:56:01.064Z,101768.25
2022-12-18T08:58:27.477Z,101775.56
2022-12-18T09:00:54.236Z,101769.34
2022-12-18T09:03:23.406Z,101766.50
2022-12-18T09:05:49.964Z,101762.69
2022-12-18T09:08:16.769Z,101742.94
2022-12-18T09:10:45.279Z,101736.69
2022-12-18T09:13:12.958Z,101728.63
2022-12-18T09:15:43.766Z,101727.41
2022-12-18T09:18:10.455Z,101721.56
2022-12-18T09:20:38.156Z,101733.34
2022-12-18T09:23:05.449Z,101728.28
2022-12-18T09:25:36.645Z,101731.19
2022-12-18T09:28:07.578Z,101728.69
2022-12-18T09:30:35.093Z,101735.66
2022-12-18T09:33:02.473Z,101736.63
2022-12-18T09:35:28.920Z,101751.44
2022-12-18T09:37:55.954Z,101752.19
2022-12-18T09:40:25.730Z,101751.47
2022-12-18T09:42:58.313Z,101756.63
2022-12-18T09:45:25.087Z,101759.97
2022-12-18T09:47:55.505Z,101765.78
2022-12-18T09:50:31.341Z,101769.03
2022-12-18T09:53:03.755Z,101761.41
2022-12-18T09:55:43.071Z,101763.16
2022-12-18T09:58:10.536Z,101783.25
2022-12-18T10:00:37.598Z,101784.53
2022-12-18T10:03:15.705Z,101787.63
2022-12-18T10:06:05.432Z,101782.19
2022-12-18T10:08:40.799Z,101785.63
2022-12-18T10:11:35.586Z,101782.38
2022-12-18T10:14:20.408Z,101783.34
2022-12-18T10:17:03.777Z,101780.25
2022-12-18T10:19:52.608Z,101778.28
2022-12-18T10:22:34.580Z,101777.34
2022-12-18T10:25:10.971Z,101780.03
2022-12-18T10:27:37.365Z,101783.63
2022-12-18T10:30:21.762Z,101779.06
2022-12-18T10:32:48.629Z,101776.97
2022-12-18T10:35:27.669Z,101774.06
2022-12-18T10:38:01.512Z,101778.81
2022-12-18T10:40:28.643Z,101772.97
2022-12-18T10:43:15.522Z,101761.53
2022-12-18T10:45:43.087Z,101764.19
2022-12-18T10:48:23.064Z,101759.69
2022-12-18T10:53:42.629Z,101728.09
2022-12-18T10:56:10.015Z,101730.19
2022-12-18T10:58:38.888Z,101741.72
2022-12-18T11:01:09.954Z,101755.97
2022-12-18T11:04:02.394Z,101755.56
2022-12-18T11:06:29.679Z,101748.03
2022-12-18T11:09:07.856Z,101742.69
2022-12-18T11:11:38.188Z,101750.59
2022-12-18T11:14:07.614Z,101744.69
2022-12-18T11:16:57.864Z,101748.75
2022-12-18T11:19:41.817Z,101751.59
2022-12-18T11:22:41.381Z,101752.69
2022-12-18T11:25:32.997Z,101752.25
2022-12-18T11:28:03.851Z,101753.28
2022-12-18T11:30:33.493Z,101743.28
2022-12-18T11:33:32.416Z,101745.63
2022-12-18T11:36:04.592Z,101756.47
2022-12-18T11:38:35.571Z,101752.22
2022-12-18T11:41:16.230Z,101749.94
2022-12-18T11:44:00.394Z,101760.84
2022-12-18T11:46:48.070Z,101754.03
2022-12-18T11:49:19.777Z,101749.25
2022-12-18T11:51:56.483Z,101744.56
2022-12-18T11:54:22.958Z,101744.44
2022-12-18T11:56:49.319Z,101726.56
2022-12-18T11:59:43.734Z,101710.06
2022-12-18T12:02:44.666Z,101705.94
2022-12-18T12:05:21.325Z,101722.78
2022-12-18T12:08:10.465Z,101719.53
2022-12-18T12:11:07.066Z,101739.78
2022-12-18T12:13:44.691Z,101736.44
2022-12-18T12:16:26.909Z,101731.09
2022-12-18T12:19:07.517Z,101722.59
2022-12-18T12:21:41.784Z,101731.75
2022-12-18T12:24:35.657Z,101728.19
2022-12-18T12:27:34.807Z,101737.03
2022-12-18T12:30:12.244Z,101726.91
2022-12-18T12:33:06.710Z,101730.19
2022-12-18T12:35:49.276Z,101720.72
2022-12-18T12:38:22.466Z,101724.47
2022-12-18T12:41:03.396Z,101731.28
2022-12-18T12:43:52.028Z,101728.66
2022-12-18T12:46:22.390Z,101724.03
2022-12-18T12:48:55.258Z,101716.81
2022-12-18T12:51:26.708Z,101712.00
2022-12-18T12:53:55.431Z,101707.41
2022-12-18T12:56:22.853Z,101676.47
2022-12-18T12:59:01.975Z,101689.38
2022-12-18T13:01:40.844Z,101679.59
2022-12-18T13:04:13.424Z,101675.63
2022-12-18T13:06:51.413Z,101665.53
2022-12-18T13:09:18.533Z,101658.56
2022-12-18T13:12:06.414Z,101648.91
2022-12-18T13:14:36.916Z,101652.81
2022-12-18T13:17:22.080Z,101644.22
2022-12-18T13:19:53.776Z,101638.69
2022-12-18T13:22:29.697Z,101633.63
2022-12-18T13:24:56.324Z,101632.84
2022-12-18T13:28:10.112Z,101622.28
2022-12-18T13:30:36.775Z,101634.56
2022-12-18T13:33:28.103Z,101626.69
2022-12-18T13:36:02.397Z,101622.81
2022-12-18T13:38:32.184Z,101616.78
2022-12-18T13:41:23.803Z,101624.25
2022-12-18T13:43:58.694Z,101625.13
2022-12-18T13:46:30.919Z,101623.63
2022-12-18T13:49:06.669Z,101633.78
2022-12-18T13:51:36.161Z,101631.78
2022-12-18T13:54:28.311Z,101622.50
2022-12-18T13:56:55.310Z,101624.78
2022-12-18T13:59:27.406Z,101624.31
2022-12-18T14:02:00.328Z,101636.13
2022-12-18T14:04:33.117Z,101629.66
2022-12-18T14:07:34.993Z,101622.81
2022-12-18T14:10:45.529Z,101630.56
2022-12-18T14:13:07.749Z,101632.53
2022-12-18T14:15:47.352Z,101626.50
2022-12-18T14:18:21.257Z,101632.66
2022-12-18T14:20:53.013Z,101626.63
2022-12-18T14:23:31.954Z,101617.66
2022-12-18T14:26:05.128Z,101623.84
2022-12-18T14:28:32.845Z,101630.53
2022-12-18T14:30:59.627Z,101629.88
2022-12-18T14:33:29.670Z,101625.47
2022-12-18T14:36:05.657Z,101636.22
2022-12-18T14:38:40.210Z,101633.84
2022-12-18T14:41:18.110Z,101642.69
2022-12-18T14:43:46.727Z,101639.41
2022-12-18T14:46:28.816Z,101630.00
2022-12-18T14:48:56.105Z,101634.09
2022-12-18T14:51:25.920Z,101632.09
2022-12-18T14:53:58.844Z,101632.03
2022-12-18T14:56:31.206Z,101630.41
2022-12-18T14:59:00.942Z,101630.84
2022-12-18T15:01:34.233Z,101628.38
2022-12-18T15:04:02.761Z,101614.44
2022-12-18T15:06:38.377Z,101607.50
2022-12-18T15:09:23.073Z,101604.63
2022-12-18T15:11:49.900Z,101604.63
2022-12-18T15:14:43.410Z,101604.56
2022-12-18T15:17:22.641Z,101600.34
2022-12-18T15:19:54.281Z,101597.66
2022-12-18T15:22:30.367Z,101593.56
2022-12-18T15:24:58.872Z,101598.56
2022-12-18T15:27:30.556Z,101597.63
2022-12-18T15:30:24.742Z,101603.72
2022-12-18T15:32:52.723Z,101608.88
2022-12-18T15:35:25.990Z,101600.50
2022-12-18T15:37:53.239Z,101599.44
2022-12-18T15:40:23.199Z,101600.16
2022-12-18T15:43:12.977Z,101610.50
2022-12-18T15:45:41.741Z,101613.66
2022-12-18T15:48:41.395Z,101606.19
2022-12-18T15:51:32.612Z,101607.28
2022-12-18T15:54:01.874Z,101598.50
2022-12-18T15:56:47.365Z,101597.00
2022-12-18T15:59:19.877Z,101596.28
2022-12-18T16:01:48.460Z,101596.63
2022-12-18T16:04:17.138Z,101603.25
2022-12-18T16:07:13.230Z,101595.75
2022-12-18T16:09:30.643Z,101602.16
2022-12-18T16:11:57.605Z,101597.19
2022-12-18T16:14:29.386Z,101595.38
2022-12-18T16:17:03.745Z,101608.56
2022-12-18T16:19:31.215Z,101598.59
2022-12-18T16:21:59.132Z,101594.44
2022-12-18T16:24:31.030Z,101592.16
2022-12-18T16:27:00.390Z,101592.97
2022-12-18T16:29:28.826Z,101592.66
2022-12-18T16:32:00.215Z,101587.38
2022-12-18T16:34:34.865Z,101582.81
2022-12-18T16:37:08.400Z,101581.28
2022-12-18T16:39:35.861Z,101578.44
2022-12-18T16:42:05.796Z,101577.91
2022-12-18T16:44:34.011Z,101574.44
2022-12-18T16:47:03.449Z,101577.97
2022-12-18T16:49:30.720Z,101575.81
2022-12-18T16:51:57.586Z,101569.34
2022-12-18T16:54:25.029Z,101554.63
2022-12-18T16:56:52.774Z,101552.88
2022-12-18T16:59:19.433Z,101552.88
2022-12-18T17:01:47.825Z,101556.38
2022-12-18T17:04:15.026Z,101553.75
2022-12-18T17:06:44.299Z,101557.25
2022-12-18T17:09:16.338Z,101557.47
2022-12-18T17:11:43.692Z,101555.03
2022-12-18T17:14:14.433Z,101545.72
2022-12-18T17:16:41.813Z,101544.59
2022-12-18T17:19:13.750Z,101545.25
2022-12-18T17:21:45.055Z,101553.63
2022-12-18T17:24:11.786Z,101545.31
2022-12-18T17:26:38.281Z,101549.03
2022-12-18T17:29:06.165Z,101564.66
2022-12-18T17:31:34.236Z,101563.69
2022-12-18T17:34:04.580Z,101568.19
2022-12-18T17:36:32.213Z,101566.69
2022-12-18T17:39:01.515Z,101562.16
2022-12-18T17:41:29.483Z,101565.56
2022-12-18T17:44:02.287Z,101562.41
2022-12-18T17:46:30.901Z,101557.22
2022-12-18T17:49:02.715Z,101562.75
2022-12-18T17:51:29.978Z,101557.28
2022-12-18T17:53:57.016Z,101553.19
2022-12-18T17:56:24.801Z,101543.56
2022-12-18T17:58:52.001Z,101537.06
2022-12-18T18:01:22.201Z,101541.00
2022-12-18T18:03:51.963Z,101534.91
2022-12-18T18:06:21.003Z,101544.09
2022-12-18T18:08:48.092Z,101554.16
2022-12-18T18:11:37.010Z,101551.00
2022-12-18T18:14:11.773Z,101545.97
2022-12-18T18:16:42.120Z,101532.50
2022-12-18T18:19:11.498Z,101533.66
2022-12-18T18:21:40.902Z,101524.88
2022-12-18T18:24:09.630Z,101520.94
2022-12-18T18:26:37.721Z,101523.47
2022-12-18T18:29:06.677Z,101530.13
2022-12-18T18:31:40.933Z,101531.94
2022-12-18T18:34:08.621Z,101532.09
2022-12-18T18:36:35.315Z,101538.75
2022-12-18T18:39:02.172Z,101531.84
2022-12-18T18:41:30.347Z,101537.47
2022-12-18T18:43:58.306Z,101546.47
2022-12-18T18:46:25.713Z,101551.69
2022-12-18T18:48:55.179Z,101548.53
2022-12-18T18:51:23.002Z,101556.13
2022-12-18T18:53:51.700Z,101543.63
2022-12-18T18:59:08.547Z,101536.13
2022-12-18T19:01:35.106Z,101534.31
2022-12-18T19:04:05.463Z,101524.63
2022-12-18T19:06:32.084Z,101525.63
2022-12-18T19:09:02.599Z,101513.06
2022-12-18T19:11:47.647Z,101508.09
2022-12-18T19:14:15.844Z,101507.53
2022-12-18T19:16:43.637Z,101497.47
2022-12-18T19:19:11.506Z,101494.59
2022-12-18T19:21:38.280Z,101491.03
2022-12-18T19:24:05.985Z,101474.69
2022-12-18T19:26:32.933Z,101467.78
2022-12-18T19:29:05.709Z,101473.34
2022-12-18T19:31:35.932Z,101475.63
2022-12-18T19:34:03.113Z,101479.25
2022-12-18T19:36:31.137Z,101491.63
2022-12-18T19:38:59.843Z,101486.22
2022-12-18T19:41:31.200Z,101478.34
2022-12-18T19:44:00.381Z,101476.03
2022-12-18T19:46:31.376Z,101475.00
2022-12-18T19:49:00.177Z,101475.28
2022-12-18T19:51:29.154Z,101474.88
2022-12-18T19:54:00.411Z,101469.59
2022-12-18T19:56:31.057Z,101473.81
2022-12-18T19:58:58.201Z,101476.34
2022-12-18T20:01:26.371Z,101479.31
2022-12-18T20:03:54.411Z,101467.88
2022-12-18T20:06:50.834Z,101468.63
2022-12-18T20:09:18.602Z,101459.50
2022-12-18T20:11:46.240Z,101459.75
2022-12-18T20:14:14.717Z,101462.59
2022-12-18T20:16:46.365Z,101442.75
2022-12-18T20:19:14.168Z,101463.06
2022-12-18T20:21:41.637Z,101454.72
2022-12-18T20:24:11.046Z,101465.78
2022-12-18T20:26:38.482Z,101454.97
2022-12-18T20:29:05.016Z,101462.72
2022-12-18T20:31:32.133Z,101471.25
2022-12-18T20:34:01.564Z,101468.22
2022-12-18T20:36:30.711Z,101470.50
2022-12-18T20:39:00.463Z,101466.00
2022-12-18T20:41:33.530Z,101457.56
2022-12-18T20:44:05.079Z,101481.19
2022-12-18T20:46:34.116Z,101481.38
2022-12-18T20:49:00.749Z,101478.25
2022-12-18T20:51:29.075Z,101475.84
2022-12-18T20:53:55.574Z,101463.25
2022-12-18T20:56:23.518Z,101471.06
2022-12-18T20:58:53.964Z,101447.97
2022-12-18T21:01:24.127Z,101450.63
2022-12-18T21:03:51.381Z,101438.75
2022-12-18T21:06:20.412Z,101444.84
2022-12-18T21:08:48.201Z,101440.78
2022-12-18T21:11:39.626Z,101440.09
2022-12-18T21:14:10.524Z,101442.22
2022-12-18T21:16:40.923Z,101449.31
2022-12-18T21:19:08.787Z,101458.63
2022-12-18T21:21:38.812Z,101437.19
2022-12-18T21:24:07.788Z,101474.63
2022-12-18T21:26:34.708Z,101463.94
2022-12-18T21:29:04.051Z,101472.88
2022-12-18T21:31:34.189Z,101470.72
2022-12-18T21:34:02.372Z,101495.13
2022-12-18T21:36:30.089Z,101469.03
2022-12-18T21:39:08.680Z,101465.81
2022-12-18T21:42:19.375Z,101463.50
2022-12-18T21:44:47.620Z,101466.22
2022-12-18T21:47:22.714Z,101459.56
2022-12-18T21:49:52.564Z,101456.25
2022-12-18T21:52:22.176Z,101455.16
2022-12-18T21:55:01.786Z,101451.03
2022-12-18T21:57:33.176Z,101442.03
2022-12-18T21:59:59.666Z,101437.03
2022-12-18T22:02:26.888Z,101445.88
2022-12-18T22:04:53.634Z,101456.78
2022-12-18T22:07:20.525Z,101447.81
2022-12-18T22:09:49.451Z,101461.28
2022-12-18T22:12:35.076Z,101472.19
2022-12-18T22:15:04.516Z,101474.91
2022-12-18T22:17:31.002Z,101486.13
2022-12-18T22:19:57.670Z,101489.53
2022-12-18T22:22:24.690Z,101476.22
2022-12-18T22:24:51.418Z,101468.03
2022-12-18T22:27:18.055Z,101464.69
2022-12-18T22:30:03.453Z,101455.59
2022-12-18T22:32:35.043Z,101455.06
2022-12-18T22:35:09.210Z,101471.47
2022-12-18T22:37:39.532Z,101467.94
2022-12-18T22:40:07.235Z,101467.19
2022-12-18T22:42:34.390Z,101473.34
2022-12-18T22:45:00.824Z,101465.91
2022-12-18T22:47:30.034Z,101454.91
2022-12-18T22:49:57.346Z,101466.91
2022-12-18T22:52:24.864Z,101461.09
2022-12-18T22:54:53.554Z,101466.25
2022-12-18T22:57:21.696Z,101453.38
2022-12-18T22:59:49.455Z,101457.94
2022-12-18T23:02:17.628Z,101454.03
2022-12-18T23:04:44.876Z,101452.75
2022-12-18T23:07:11.881Z,101455.47
2022-12-18T23:09:39.342Z,101452.13
2022-12-18T23:12:06.242Z,101445.28
2022-12-18T23:14:32.724Z,101445.16
2022-12-18T23:16:59.154Z,101443.53
2022-12-18T23:19:26.258Z,101443.69
2022-12-18T23:21:54.844Z,101442.06
2022-12-18T23:24:25.353Z,101431.06
2022-12-18T23:26:51.998Z,101441.44
2022-12-18T23:29:18.432Z,101432.91
2022-12-18T23:31:45.511Z,101441.31
2022-12-18T23:34:14.063Z,101437.44
2022-12-18T23:36:45.537Z,101436.16
2022-12-18T23:39:27.550Z,101425.28
2022-12-18T23:41:59.953Z,101416.03
2022-12-18T23:44:26.977Z,101417.88
2022-12-18T23:46:53.721Z,101416.09
2022-12-18T23:49:20.399Z,101404.41
2022-12-18T23:51:46.912Z,101404.50
2022-12-18T23:54:13.438Z,101405.00
2022-12-18T23:56:40.142Z,101400.44
2022-12-18T23:59:06.804Z,101406.41
